Sunday, January 20, 2019, 1:56 AM EST
Back to Local

KMGJ, Montgomery Orange Co Airport

Location: Montgomery, NY, United States Lat: 41.517
Local Time: 1:56 AM EST ( 6:56 GMT) Lon: -74.267
Time Zone: US/Eastern Elev: 354 ft

Show me the last for .
Show Decoded

2019-01-20 01:26 METAR KMGJ 200626Z AUTO 03011KT 1 3/4SM UP BR BKN016 OVC022 M06/M08 A2980 RMK
                 AO2 P0005 T10611083 =
2019-01-20 01:19 METAR KMGJ 200619Z AUTO 02010KT 2SM UP BR SCT012 OVC022 M07/M08 A2980 RMK AO2
                 P0004 T10671083 =
2019-01-20 00:54 METAR KMGJ 200554Z AUTO 02012KT 1 3/4SM UP BR OVC010 M07/M09 A2982 RMK AO2
                 UPB41SNE41 SLP102 P0008 60017 T10671089 11044 21072 56028 =
2019-01-20 00:49 METAR KMGJ 200549Z AUTO 02011KT 1 1/2SM UP BR OVC012 M07/M09 A2982 RMK AO2
                 UPB41SNE41 P0008 =
2019-01-20 00:30 METAR KMGJ 200530Z AUTO 04011KT 1SM -SN BR VV011 M07/M09 A2982 RMK AO2 P0005
                 T10721089 =
2019-01-19 23:54 METAR KMGJ 200454Z AUTO 03012KT 3/4SM -SN BR VV012 M07/M09 A2987 RMK AO2 SLP118
                 P0002 T10721089 400061072 =
2019-01-19 23:15 METAR KMGJ 200415Z AUTO 03013KT 3/4SM -SN BR VV012 M07/M09 A2989 RMK AO2 P0001
                 T10671089 =
2019-01-19 23:05 METAR KMGJ 200405Z AUTO 03013KT 1SM -SN BR VV013 M07/M09 A2990 RMK AO2 P0000
                 T10721089 =
2019-01-19 22:54 METAR KMGJ 200354Z AUTO 03014KT 3/4SM -SN BR VV012 M07/M09 A2990 RMK AO2 SLP131
                 P0002 T10721089 =
2019-01-19 22:45 METAR KMGJ 200345Z AUTO 03014KT 3/4SM -SN BR VV011 M07/M09 A2991 RMK AO2 P0002
                 T10721089 =
2019-01-19 22:08 METAR KMGJ 200308Z AUTO 03012KT 1/2SM SN FZFG VV009 M07/M08 A2994 RMK AO2 P0001
                 T10671083 =
2019-01-19 21:54 METAR KMGJ 200254Z AUTO 03014KT 3/4SM -SN BR VV012 M07/M08 A2995 RMK AO2 SLP146
                 P0002 60005 T10671083 58043 =
2019-01-19 20:54 METAR KMGJ 200154Z AUTO 04008KT 3/4SM -SN BR VV012 M06/M07 A3001 RMK AO2 SLP167
                 P0003 T10561072 =
2019-01-19 20:36 METAR KMGJ 200136Z AUTO 04006KT 3/4SM -SN BR VV013 M05/M07 A3003 RMK AO2 P0002
                 T10501067 =
2019-01-19 20:11 METAR KMGJ 200111Z AUTO 03009KT 1SM -SN BR VV016 M05/M07 A3003 RMK AO2 P0001
                 T10501067 =
2019-01-19 20:02 METAR KMGJ 200102Z AUTO 03010KT 3/4SM -SN BR VV017 M05/M07 A3003 RMK AO2 P0001
                 T10501067 =
2019-01-19 19:54 METAR KMGJ 200054Z AUTO 03009KT 1 1/4SM -SN BR OVC019 M05/M07 A3003 RMK AO2
                 SLP175 P0000 T10501067 =
2019-01-19 19:14 METAR KMGJ 200014Z AUTO 03010KT 1 1/2SM -SN BR OVC019 M04/M06 A3006 RMK AO2
                 P0000 T10441061 =
2019-01-19 18:54 METAR KMGJ 192354Z AUTO 03009KT 1SM -SN BR VV018 M04/M06 A3008 RMK AO2 SLP189
                 P0001 60001 T10441061 10006 21044 56017 =
2019-01-19 18:38 METAR KMGJ 192338Z AUTO 02008KT 1 1/4SM -SN BR OVC016 M04/M06 A3009 RMK AO2
                 P0001 T10391056 =
2019-01-19 18:30 METAR KMGJ 192330Z AUTO 02007KT 1SM -SN BR VV016 M04/M06 A3009 RMK AO2 P0000
                 T10391056 =
2019-01-19 18:15 METAR KMGJ 192315Z AUTO 02008KT 1 1/4SM -SN BR OVC021 M03/M06 A3009 RMK AO2
                 P0000 T10331056 =
2019-01-19 17:54 METAR KMGJ 192254Z AUTO 02009KT 2 1/2SM -SN BKN029 OVC035 M03/M06 A3010 RMK AO2
                 SNB26 SLP196 P0000 T10281061 =
2019-01-19 17:46 METAR KMGJ 192246Z AUTO 02009KT 2 1/2SM -SN BKN029 OVC034 M03/M07 A3010 RMK AO2
                 SNB26 P0000 T10281067 =
2019-01-19 16:54 METAR KMGJ 192154Z AUTO 02007KT 10SM OVC033 M02/M07 A3011 RMK AO2 SLP199
                 T10171067 =
2019-01-19 15:54 METAR KMGJ 192054Z AUTO 03008KT 10SM OVC035 M01/M07 A3013 RMK AO2 SLP207
                 T10111067 56014 =
2019-01-19 14:54 METAR KMGJ 191954Z AUTO 05006KT 10SM OVC035 01/M07 A3014 RMK AO2 SLP211
                 T00061067 =
2019-01-19 13:54 METAR KMGJ 191854Z AUTO 06004KT 10SM OVC034 00/M07 A3014 RMK AO2 SLP212
                 T00001072 =
2019-01-19 12:54 METAR KMGJ 191754Z AUTO 08005KT 10SM OVC034 00/M07 A3017 RMK AO2 SLP221
                 T00001072 10006 21061 58025 =
2019-01-19 11:54 METAR KMGJ 191654Z AUTO 09006KT 10SM BKN035 BKN045 00/M07 A3022 RMK AO2 SLP237
                 T00001072 =
2019-01-19 10:54 METAR KMGJ 191554Z AUTO 04005KT 10SM OVC034 M01/M06 A3024 RMK AO2 SLP246
                 T10061061 =
2019-01-19 09:54 METAR KMGJ 191454Z AUTO 06004KT 10SM OVC035 M01/M06 A3024 RMK AO2 SLP246
                 T10061056 51016 =
2019-01-19 08:54 METAR KMGJ 191354Z AUTO 00000KT 10SM BKN037 OVC044 M03/M06 A3024 RMK AO2 SLP244
                 T10331061 =
2019-01-19 07:54 METAR KMGJ 191254Z AUTO 00000KT 10SM CLR M06/M07 A3021 RMK AO2 SLP236 T10611072
                 =
2019-01-19 06:54 METAR KMGJ 191154Z AUTO 00000KT 10SM OVC042 M05/M07 A3020 RMK AO2 SLP230
                 T10501072 11011 21067 53011 =
2019-01-19 05:54 METAR KMGJ 191054Z AUTO 00000KT 10SM FEW046 M06/M08 A3019 RMK AO2 SLP226
                 T10611083 =
2019-01-19 04:54 METAR KMGJ 190954Z AUTO 00000KT 10SM CLR M05/M08 A3017 RMK AO2 SLP222 T10501083
                 =
2019-01-19 03:54 METAR KMGJ 190854Z AUTO 00000KT 10SM CLR M03/M08 A3016 RMK AO2 SLP218 T10331078
                 50004 =
2019-01-19 02:54 METAR KMGJ 190754Z AUTO 27006KT 10SM CLR M02/M07 A3018 RMK AO2 SLP224 T10171072
                 =

Support USWX by starting your Amazon purchase here.